Time;durP1;ratioP1;P1;durP2;ratioP2;P2;SDS_P1;SDS_P2;PMS_P1;PMS_P2;Temp;Humidity;BMP_temperature;BMP_pressure;BME280_temperature;BME280_humidity;BME280_pressure;Samples;Min_cycle;Max_cycle;Signal;HPM_P1;HPM_P2
2020/12/22 00:01:13;;;;;;;4.00;2.00;;;9.60;97.70;;;;;;5034665;28;20387;-82
2020/12/22 00:03:40;;;;;;;4.67;2.50;;;9.60;97.70;;;;;;5035950;28;20378;-82
2020/12/22 00:06:06;;;;;;;4.30;2.10;;;9.60;97.70;;;;;;5035438;28;20085;-82
2020/12/22 00:08:32;;;;;;;4.53;1.97;;;9.60;97.70;;;;;;5035628;28;20041;-82
2020/12/22 00:10:57;;;;;;;4.03;2.00;;;9.70;97.90;;;;;;5033577;28;20474;-81
2020/12/22 00:13:23;;;;;;;3.60;2.07;;;9.70;97.80;;;;;;5033629;28;20033;-81
2020/12/22 00:15:48;;;;;;;3.80;2.20;;;9.70;97.90;;;;;;5033615;28;20030;-82
2020/12/22 00:18:14;;;;;;;4.63;2.10;;;9.70;97.80;;;;;;5034157;28;20040;-82
2020/12/22 00:20:40;;;;;;;5.53;2.20;;;9.70;98.00;;;;;;5033084;28;20036;-82
2020/12/22 00:23:06;;;;;;;4.63;2.10;;;9.70;98.10;;;;;;5033291;28;20496;-81
2020/12/22 00:25:31;;;;;;;4.00;1.80;;;9.70;98.00;;;;;;5033473;28;20028;-81
2020/12/22 00:27:57;;;;;;;3.13;1.70;;;9.80;98.10;;;;;;5033220;28;20021;-81
2020/12/22 00:30:23;;;;;;;3.63;1.83;;;9.80;98.30;;;;;;5032911;28;20026;-81
2020/12/22 00:32:49;;;;;;;3.20;1.70;;;9.80;98.00;;;;;;5015678;28;20033;-81
2020/12/22 00:35:14;;;;;;;2.77;1.47;;;9.80;98.00;;;;;;5033398;28;20486;-81
2020/12/22 00:37:43;;;;;;;4.93;1.77;;;9.90;98.40;;;;;;5034063;28;20021;-81
2020/12/22 00:40:08;;;;;;;4.33;1.60;;;9.90;98.30;;;;;;5034326;28;20025;-81
2020/12/22 00:42:34;;;;;;;2.87;1.50;;;9.90;98.30;;;;;;5034601;28;20053;-82
2020/12/22 00:44:59;;;;;;;2.83;1.30;;;10.00;98.40;;;;;;5016398;28;20116;-81
2020/12/22 00:47:25;;;;;;;3.00;1.40;;;10.10;98.50;;;;;;5034361;28;20053;-81
2020/12/22 00:49:51;;;;;;;2.37;1.27;;;10.10;99.30;;;;;;5034760;28;20434;-81
2020/12/22 00:52:17;;;;;;;1.97;1.10;;;10.20;99.50;;;;;;5034706;28;20028;-81
2020/12/22 00:54:43;;;;;;;3.40;1.50;;;10.30;99.30;;;;;;5034893;28;20030;-81
2020/12/22 00:57:08;;;;;;;1.97;1.10;;;10.40;99.50;;;;;;5037684;28;20036;-81
2020/12/22 00:59:37;;;;;;;2.37;1.27;;;10.60;99.90;;;;;;5038182;28;20105;-81
2020/12/22 01:02:07;;;;;;;3.05;1.35;;;10.60;99.40;;;;;;5020885;28;20021;-81
2020/12/22 01:04:32;;;;;;;3.07;1.53;;;10.80;99.60;;;;;;5038028;28;20032;-81
2020/12/22 01:06:58;;;;;;;5.80;1.90;;;10.90;99.10;;;;;;5038606;28;20022;-80
2020/12/22 01:09:24;;;;;;;5.97;1.77;;;10.90;98.90;;;;;;5039565;28;20029;-81
2020/12/22 01:11:49;;;;;;;3.00;1.60;;;11.00;98.80;;;;;;5038662;28;20085;-80
2020/12/22 01:14:15;;;;;;;7.07;3.80;;;11.00;98.50;;;;;;5038460;28;20486;-81
2020/12/22 01:16:41;;;;;;;5.10;3.10;;;11.10;98.40;;;;;;5038015;28;20021;-81
2020/12/22 01:19:06;;;;;;;8.27;4.13;;;11.20;98.40;;;;;;5038328;28;20393;-81
2020/12/22 01:21:32;;;;;;;6.43;3.63;;;11.30;98.60;;;;;;5038008;28;20022;-81
2020/12/22 01:23:57;;;;;;;4.40;2.57;;;11.30;98.50;;;;;;5019893;28;20017;-81
2020/12/22 01:26:25;;;;;;;5.37;2.60;;;11.30;98.20;;;;;;5038160;28;20544;-81
2020/12/22 01:28:55;;;;;;;5.27;2.33;;;11.30;98.10;;;;;;5019335;28;20025;-81
2020/12/22 01:31:22;;;;;;;4.60;2.57;;;11.30;98.30;;;;;;5038000;28;20028;-81
2020/12/22 01:33:47;;;;;;;6.10;3.40;;;11.30;98.50;;;;;;5038400;28;20292;-81
2020/12/22 01:36:13;;;;;;;7.83;3.80;;;11.30;98.30;;;;;;5037608;28;20478;-80
2020/12/22 01:38:39;;;;;;;8.03;4.70;;;11.40;98.10;;;;;;5038047;28;20493;-81
2020/12/22 01:41:05;;;;;;;6.93;4.10;;;11.40;98.10;;;;;;5037966;28;20025;-81
2020/12/22 01:43:30;;;;;;;7.80;4.27;;;11.50;98.10;;;;;;5037597;28;20074;-82
2020/12/22 01:45:56;;;;;;;6.30;3.93;;;11.50;97.90;;;;;;5037487;28;20533;-83
2020/12/22 01:48:21;;;;;;;8.47;3.90;;;11.50;97.90;;;;;;5020083;28;20125;-81
2020/12/22 01:50:47;;;;;;;7.83;4.00;;;11.60;97.90;;;;;;5037751;28;20474;-80
2020/12/22 01:53:13;;;;;;;9.37;4.07;;;11.60;97.60;;;;;;5037570;28;20041;-81
2020/12/22 01:55:42;;;;;;;8.63;4.00;;;11.60;97.50;;;;;;5037751;28;20036;-82
2020/12/22 01:58:08;;;;;;;7.37;4.10;;;11.60;97.90;;;;;;5037390;28;20041;-80
2020/12/22 02:00:34;;;;;;;9.50;4.40;;;11.80;97.50;;;;;;5037750;28;20085;-81
2020/12/22 02:03:00;;;;;;;11.47;5.30;;;11.80;97.40;;;;;;5037813;28;20057;-80
2020/12/22 02:05:26;;;;;;;12.77;6.23;;;11.70;97.40;;;;;;5020080;28;20030;-81
2020/12/22 02:07:52;;;;;;;15.73;7.03;;;11.80;97.60;;;;;;5037699;28;20028;-81
2020/12/22 02:10:17;;;;;;;10.23;5.67;;;11.90;97.30;;;;;;5037741;28;20053;-81
2020/12/22 02:12:43;;;;;;;11.87;4.70;;;12.00;97.20;;;;;;5038062;28;20045;-81
2020/12/22 02:15:09;;;;;;;13.47;7.03;;;11.90;97.00;;;;;;5037868;28;20030;-81
2020/12/22 02:17:35;;;;;;;12.20;6.53;;;11.90;97.00;;;;;;5019520;28;20089;-81
2020/12/22 02:20:02;;;;;;;10.03;5.07;;;12.00;96.90;;;;;;5038245;28;20483;-81
2020/12/22 02:22:28;;;;;;;8.67;5.27;;;12.10;96.90;;;;;;5038129;28;20386;-81
2020/12/22 02:24:53;;;;;;;8.47;3.90;;;12.10;96.80;;;;;;5037942;28;20018;-81
2020/12/22 02:27:19;;;;;;;8.47;4.10;;;12.10;96.50;;;;;;5037455;28;20067;-81
2020/12/22 02:29:45;;;;;;;10.20;5.00;;;12.10;96.40;;;;;;5037335;28;20028;-82
2020/12/22 02:32:10;;;;;;;12.33;5.43;;;12.00;96.60;;;;;;5037765;28;20029;-81
2020/12/22 02:34:36;;;;;;;8.07;4.90;;;12.10;96.60;;;;;;5037919;28;20120;-81
2020/12/22 02:37:01;;;;;;;10.97;5.40;;;12.10;96.70;;;;;;5038106;28;20021;-81
2020/12/22 02:39:27;;;;;;;11.07;5.00;;;12.20;96.40;;;;;;5037543;28;20025;-83
2020/12/22 02:41:52;;;;;;;11.40;5.47;;;12.20;96.50;;;;;;5035804;28;20036;-83
2020/12/22 02:44:18;;;;;;;9.37;5.10;;;12.30;96.40;;;;;;5035954;28;20097;-83
2020/12/22 02:46:44;;;;;;;8.97;4.57;;;12.30;96.40;;;;;;5036135;28;20021;-83
2020/12/22 02:49:10;;;;;;;10.27;4.70;;;12.30;96.40;;;;;;5018137;28;20540;-83
2020/12/22 02:51:35;;;;;;;5.73;2.90;;;12.30;96.40;;;;;;5038250;28;20029;-83
2020/12/22 02:54:01;;;;;;;8.87;4.00;;;12.30;96.30;;;;;;5017976;28;20080;-83
2020/12/22 02:56:27;;;;;;;11.00;4.43;;;12.40;96.10;;;;;;5019218;28;20371;-81
2020/12/22 02:58:52;;;;;;;10.27;4.57;;;12.30;96.20;;;;;;5037566;28;20029;-83
2020/12/22 03:01:21;;;;;;;10.17;5.43;;;12.30;96.30;;;;;;5018000;28;20102;-83
2020/12/22 03:03:46;;;;;;;11.13;4.80;;;12.40;96.30;;;;;;5042982;28;20029;-81
2020/12/22 03:06:12;;;;;;;8.97;4.00;;;12.30;96.20;;;;;;5043703;28;20030;-80
2020/12/22 03:08:38;;;;;;;10.77;4.13;;;12.40;96.30;;;;;;5017375;28;20117;-80
2020/12/22 03:11:03;;;;;;;9.33;3.70;;;12.30;96.20;;;;;;5035101;28;20029;-83
2020/12/22 03:13:29;;;;;;;5.30;2.50;;;12.40;96.10;;;;;;5035620;28;20223;-80
2020/12/22 03:15:54;;;;;;;5.77;2.53;;;12.40;96.10;;;;;;5017779;28;20029;-83
2020/12/22 03:18:20;;;;;;;5.37;2.17;;;12.50;95.80;;;;;;5034397;28;20124;-82
2020/12/22 03:20:46;;;;;;;4.80;2.20;;;12.50;95.80;;;;;;5034717;28;20039;-80
2020/12/22 03:23:12;;;;;;;4.03;1.80;;;12.50;95.70;;;;;;5035094;28;20537;-83
2020/12/22 03:25:38;;;;;;;4.97;1.53;;;12.50;95.50;;;;;;5034931;28;20079;-82
2020/12/22 03:28:04;;;;;;;3.27;1.20;;;12.60;95.40;;;;;;5034536;28;20108;-83
2020/12/22 03:30:29;;;;;;;5.57;1.50;;;12.50;95.70;;;;;;5034669;28;20026;-83
2020/12/22 03:32:55;;;;;;;2.30;1.10;;;12.50;95.70;;;;;;5035032;28;20402;-80
2020/12/22 03:35:20;;;;;;;3.30;1.07;;;12.50;95.60;;;;;;5035276;28;20025;-82
2020/12/22 03:37:46;;;;;;;2.90;1.30;;;12.50;95.60;;;;;;5035398;28;20060;-80
2020/12/22 03:40:12;;;;;;;3.77;1.13;;;12.60;95.60;;;;;;5034267;28;20033;-83
2020/12/22 03:42:38;;;;;;;3.60;0.97;;;12.50;95.70;;;;;;5035389;28;20033;-82
2020/12/22 03:45:06;;;;;;;3.50;1.20;;;12.50;95.60;;;;;;5035061;28;20025;-82
2020/12/22 03:47:31;;;;;;;1.63;1.00;;;12.50;95.80;;;;;;5035242;28;20524;-82
2020/12/22 03:49:57;;;;;;;3.07;1.00;;;12.60;95.70;;;;;;5017274;28;20117;-82
2020/12/22 03:52:22;;;;;;;2.27;0.90;;;12.60;95.50;;;;;;5035150;28;20032;-83
2020/12/22 03:54:48;;;;;;;2.83;1.00;;;12.60;96.00;;;;;;5034930;28;20116;-82
2020/12/22 03:57:15;;;;;;;4.07;1.00;;;12.60;95.70;;;;;;5034661;28;20508;-82
2020/12/22 03:59:41;;;;;;;5.13;1.57;;;12.60;95.60;;;;;;5016566;28;20025;-83
2020/12/22 04:02:06;;;;;;;1.67;0.90;;;12.50;95.60;;;;;;5034632;28;20501;-83
2020/12/22 04:04:32;;;;;;;2.63;1.20;;;12.60;95.50;;;;;;5034662;28;20029;-82
2020/12/22 04:06:58;;;;;;;5.33;1.20;;;12.50;95.70;;;;;;5034464;28;20381;-82
2020/12/22 04:09:23;;;;;;;2.53;0.90;;;12.50;96.10;;;;;;5034435;28;20026;-82
2020/12/22 04:11:50;;;;;;;2.47;0.87;;;12.60;95.80;;;;;;5034665;28;20414;-82
2020/12/22 04:14:16;;;;;;;3.30;1.00;;;12.70;95.40;;;;;;5034754;28;20453;-82
2020/12/22 04:16:42;;;;;;;1.57;0.83;;;12.60;95.40;;;;;;5034660;28;20032;-82
2020/12/22 04:19:08;;;;;;;2.37;0.97;;;12.60;95.40;;;;;;5034332;28;20022;-82
2020/12/22 04:21:35;;;;;;;5.20;1.13;;;12.60;95.60;;;;;;5034083;28;20490;-82
2020/12/22 04:24:01;;;;;;;2.03;0.90;;;12.70;95.40;;;;;;5034240;28;20509;-82
2020/12/22 04:26:28;;;;;;;4.50;1.13;;;12.70;95.50;;;;;;5034275;28;20029;-82
2020/12/22 04:28:54;;;;;;;2.33;0.90;;;12.60;95.50;;;;;;5016393;28;20083;-82
2020/12/22 04:31:21;;;;;;;4.43;0.80;;;12.60;95.70;;;;;;5035947;28;20030;-82
2020/12/22 04:33:48;;;;;;;2.00;0.77;;;12.60;95.50;;;;;;5036494;28;20105;-83
2020/12/22 04:36:14;;;;;;;2.25;0.90;;;12.60;95.60;;;;;;5036835;28;20048;-82
2020/12/22 04:38:39;;;;;;;2.33;0.70;;;12.50;95.90;;;;;;5036645;28;20026;-83
2020/12/22 04:41:06;;;;;;;4.75;1.15;;;12.60;95.60;;;;;;5036748;28;20044;-83
2020/12/22 04:43:31;;;;;;;2.55;0.90;;;12.60;95.80;;;;;;5019213;28;20025;-83
2020/12/22 04:46:05;;;;;;;1.50;0.68;;;12.70;95.60;;;;;;5036776;28;20029;-83
2020/12/22 04:48:38;;;;;;;1.27;0.80;;;12.60;95.60;;;;;;5036779;28;20025;-82
2020/12/22 04:51:08;;;;;;;2.40;0.88;;;12.60;95.50;;;;;;5036926;28;20095;-83
2020/12/22 04:53:35;;;;;;;3.40;0.70;;;12.60;95.60;;;;;;5037975;28;20367;-83
2020/12/22 04:56:07;;;;;;;2.10;0.60;;;12.70;95.40;;;;;;5037546;28;20435;-83
2020/12/22 04:58:33;;;;;;;2.00;0.60;;;12.70;95.50;;;;;;5037502;28;20329;-82
2020/12/22 05:00:59;;;;;;;4.53;1.70;;;12.60;95.90;;;;;;5037279;28;20079;-83
2020/12/22 05:03:24;;;;;;;3.22;1.50;;;12.60;95.70;;;;;;5037419;28;20017;-83
2020/12/22 05:05:51;;;;;;;2.25;0.90;;;12.60;95.70;;;;;;5037904;28;20071;-83
2020/12/22 05:08:18;;;;;;;3.20;1.60;;;12.60;95.60;;;;;;5037642;28;20028;-83
2020/12/22 05:10:45;;;;;;;2.72;1.25;;;12.60;95.70;;;;;;5037274;28;20021;-83
2020/12/22 05:13:15;;;;;;;2.05;1.00;;;12.70;95.30;;;;;;5037639;28;20029;-82
2020/12/22 05:15:47;;;;;;;3.15;0.90;;;12.70;95.50;;;;;;5033682;28;20052;-82
2020/12/22 05:18:13;;;;;;;2.03;1.20;;;12.70;95.40;;;;;;5034293;28;20033;-82
2020/12/22 05:20:45;;;;;;;4.03;1.67;;;12.80;95.20;;;;;;5034227;28;20112;-83
2020/12/22 05:23:15;;;;;;;2.50;1.40;;;12.80;95.00;;;;;;5033633;28;20494;-82
2020/12/22 05:25:42;;;;;;;2.85;1.10;;;12.90;95.10;;;;;;5016464;28;20029;-82
2020/12/22 05:28:08;;;;;;;2.83;1.10;;;12.90;94.80;;;;;;5034129;28;20026;-83
2020/12/22 05:30:37;;;;;;;2.15;0.70;;;12.90;95.00;;;;;;5033773;28;20037;-83
2020/12/22 05:33:03;;;;;;;1.83;0.70;;;12.90;95.10;;;;;;5016143;28;20441;-83
2020/12/22 05:35:44;;;;;;;2.58;1.00;;;12.90;95.20;;;;;;5016440;28;20021;-82
2020/12/22 05:38:11;;;;;;;3.53;0.77;;;12.80;95.20;;;;;;5015918;28;20029;-82
2020/12/22 05:40:39;;;;;;;3.10;1.30;;;12.80;95.40;;;;;;5032533;28;20026;-83
2020/12/22 05:43:06;;;;;;;2.30;0.70;;;12.80;95.30;;;;;;5035661;28;20029;-83
2020/12/22 05:45:33;;;;;;;2.65;0.80;;;12.80;95.40;;;;;;5036203;28;20044;-82
2020/12/22 05:47:59;;;;;;;2.90;0.98;;;12.90;95.30;;;;;;5036230;28;20026;-82
2020/12/22 05:50:25;;;;;;;2.08;0.98;;;12.80;95.60;;;;;;5018124;28;20493;-83
2020/12/22 05:52:53;;;;;;;1.30;0.63;;;12.80;95.70;;;;;;5018455;28;20026;-83
2020/12/22 05:55:30;;;;;;;2.88;1.00;;;12.70;95.80;;;;;;5036640;28;20080;-83
2020/12/22 05:58:12;;;;;;;4.05;1.60;;;12.80;95.80;;;;;;5035716;28;20075;-83
2020/12/22 06:00:43;;;;;;;1.90;0.85;;;12.70;95.70;;;;;;5035809;28;20029;-83
2020/12/22 06:03:13;;;;;;;2.17;0.95;;;12.80;95.90;;;;;;5018433;28;20372;-83
2020/12/22 06:05:46;;;;;;;2.58;1.20;;;12.80;96.10;;;;;;5036052;28;20048;-83
2020/12/22 06:08:14;;;;;;;2.70;1.00;;;12.80;95.90;;;;;;5036004;28;20055;-83
2020/12/22 06:10:41;;;;;;;3.53;1.20;;;12.80;95.90;;;;;;5036028;28;20041;-82
2020/12/22 06:13:09;;;;;;;2.67;1.43;;;12.80;96.20;;;;;;5017884;28;20448;-83
2020/12/22 06:15:35;;;;;;;4.50;1.70;;;12.80;96.20;;;;;;5017789;28;20033;-81
2020/12/22 06:18:01;;;;;;;3.30;1.70;;;12.80;96.20;;;;;;5036747;28;20555;-82
2020/12/22 06:20:28;;;;;;;2.88;1.50;;;12.80;96.10;;;;;;5036289;28;20022;-83
2020/12/22 06:23:01;;;;;;;4.77;2.17;;;12.80;96.10;;;;;;5037179;28;20514;-82
2020/12/22 06:25:27;;;;;;;5.28;2.58;;;12.80;96.10;;;;;;5036827;28;20386;-82
2020/12/22 06:27:53;;;;;;;6.00;3.00;;;12.80;96.10;;;;;;5019283;28;20112;-82
2020/12/22 06:30:29;;;;;;;6.47;3.27;;;12.80;96.20;;;;;;5036535;28;20483;-82
2020/12/22 06:32:54;;;;;;;6.55;2.20;;;12.80;96.00;;;;;;5037290;28;20029;-82
2020/12/22 06:35:29;;;;;;;1.87;1.30;;;12.80;96.00;;;;;;5036518;28;20027;-82
2020/12/22 06:37:56;;;;;;;2.55;1.50;;;12.80;96.10;;;;;;5036838;28;20096;-83
2020/12/22 06:40:51;;;;;;;5.38;2.67;;;12.70;96.20;;;;;;5019974;28;20032;-83
2020/12/22 06:43:49;;;;;;;5.70;2.75;;;12.70;96.10;;;;;;5030598;28;20079;-82
2020/12/22 06:46:33;;;;;;;5.15;2.90;;;12.70;96.40;;;;;;5004927;28;20084;-82
2020/12/22 06:48:59;;;;;;;3.03;1.75;;;12.70;96.30;;;;;;5036707;28;20021;-82
2020/12/22 06:51:31;;;;;;;3.05;1.50;;;12.70;96.50;;;;;;5036381;28;20112;-82
2020/12/22 06:54:00;;;;;;;3.97;1.73;;;12.70;96.40;;;;;;5036045;28;20048;-82
2020/12/22 06:56:47;;;;;;;5.97;2.60;;;12.70;96.40;;;;;;5037200;28;20095;-83
2020/12/22 06:59:33;;;;;;;6.88;3.10;;;12.70;96.10;;;;;;5037133;28;20033;-83
2020/12/22 07:01:59;;;;;;;7.00;3.38;;;12.80;95.80;;;;;;5018620;28;20033;-82
2020/12/22 07:04:25;;;;;;;7.35;3.50;;;12.90;95.60;;;;;;5037794;28;20437;-83
2020/12/22 07:06:52;;;;;;;7.40;3.65;;;12.80;95.50;;;;;;5038020;28;20030;-82
2020/12/22 07:09:24;;;;;;;7.72;3.70;;;12.80;95.80;;;;;;5036216;28;20030;-83
2020/12/22 07:11:53;;;;;;;6.97;3.22;;;12.70;95.80;;;;;;5036456;28;20506;-82
2020/12/22 07:14:21;;;;;;;7.60;3.47;;;12.80;95.60;;;;;;5036550;28;20022;-83
2020/12/22 07:17:00;;;;;;;7.85;3.72;;;12.90;95.40;;;;;;5036605;28;20032;-82
2020/12/22 07:19:29;;;;;;;5.75;3.33;;;12.90;95.20;;;;;;5036486;28;20429;-83
2020/12/22 07:21:59;;;;;;;6.53;3.05;;;12.80;95.20;;;;;;5035792;28;20112;-83
2020/12/22 07:24:36;;;;;;;7.45;3.70;;;12.80;95.20;;;;;;5036455;28;20485;-83
2020/12/22 07:27:02;;;;;;;7.63;3.70;;;12.80;95.30;;;;;;5036292;28;20018;-82
2020/12/22 07:29:28;;;;;;;7.70;4.25;;;12.80;95.30;;;;;;5035530;28;20018;-82
2020/12/22 07:31:54;;;;;;;5.90;2.90;;;12.70;95.30;;;;;;5035926;28;20486;-82
2020/12/22 07:34:21;;;;;;;4.72;2.50;;;12.70;95.40;;;;;;5018235;28;20037;-82
2020/12/22 07:36:48;;;;;;;4.07;1.98;;;12.70;95.40;;;;;;5036406;28;20372;-83
2020/12/22 07:39:17;;;;;;;4.95;2.10;;;12.70;95.20;;;;;;5036285;28;20029;-82
2020/12/22 07:41:45;;;;;;;4.63;1.88;;;12.70;95.20;;;;;;5018003;28;20033;-82
2020/12/22 07:44:15;;;;;;;6.80;2.63;;;12.70;95.20;;;;;;5036344;28;20026;-83
2020/12/22 07:46:43;;;;;;;5.70;2.60;;;12.80;94.70;;;;;;5036687;28;20104;-82
2020/12/22 07:49:10;;;;;;;5.90;2.70;;;12.80;94.60;;;;;;5035908;28;20017;-82
2020/12/22 07:51:39;;;;;;;4.90;2.90;;;12.80;94.60;;;;;;5036099;28;20033;-83
2020/12/22 07:54:05;;;;;;;;;;;12.80;94.60;;;;;;5036717;28;20031;-83
2020/12/22 07:56:33;;;;;;;8.68;2.97;;;12.80;94.50;;;;;;5036187;28;20000;-83
2020/12/22 07:59:06;;;;;;;8.05;3.05;;;12.80;94.40;;;;;;5036167;28;20458;-82
2020/12/22 08:01:46;;;;;;;5.63;2.47;;;12.80;94.30;;;;;;5018676;28;20021;-82
2020/12/22 08:04:14;;;;;;;4.93;2.67;;;12.80;94.20;;;;;;5035246;28;20032;-83
2020/12/22 08:06:42;;;;;;;5.32;2.38;;;12.80;94.30;;;;;;5035905;28;20017;-83
2020/12/22 08:09:07;;;;;;;5.57;1.90;;;12.70;94.20;;;;;;5035997;28;20026;-83
2020/12/22 08:11:33;;;;;;;3.90;1.55;;;12.70;94.40;;;;;;5035824;28;20027;-82
2020/12/22 08:14:02;;;;;;;3.78;1.30;;;12.70;94.50;;;;;;5036420;28;20026;-82
2020/12/22 08:16:30;;;;;;;2.63;1.40;;;12.70;94.20;;;;;;5036242;28;20171;-82
2020/12/22 08:18:58;;;;;;;5.20;1.83;;;12.70;94.30;;;;;;5035798;28;20033;-83
2020/12/22 08:21:24;;;;;;;7.03;2.80;;;12.60;94.40;;;;;;5035847;28;20025;-82
2020/12/22 08:23:50;;;;;;;6.22;2.88;;;12.80;94.10;;;;;;5036809;28;20030;-82
2020/12/22 08:26:18;;;;;;;6.95;3.30;;;12.80;94.10;;;;;;5036138;28;20029;-83
2020/12/22 08:28:56;;;;;;;5.32;2.88;;;12.80;94.20;;;;;;5036122;28;20390;-82
2020/12/22 08:31:24;;;;;;;9.10;4.00;;;12.80;94.30;;;;;;5036721;28;20025;-82
2020/12/22 08:33:52;;;;;;;13.18;4.13;;;12.80;94.20;;;;;;5018101;28;20072;-82
2020/12/22 08:36:20;;;;;;;6.35;3.75;;;12.80;94.10;;;;;;5036045;28;20041;-82
2020/12/22 08:38:45;;;;;;;9.27;3.55;;;12.80;94.10;;;;;;5036213;28;20040;-82
2020/12/22 08:41:14;;;;;;;7.30;3.78;;;12.80;94.00;;;;;;5036264;28;20387;-83
2020/12/22 08:43:50;;;;;;;6.90;3.53;;;12.80;93.80;;;;;;5017729;28;20029;-83
2020/12/22 08:46:17;;;;;;;6.07;2.60;;;12.80;93.80;;;;;;5035660;28;20447;-83
2020/12/22 08:48:43;;;;;;;5.90;2.78;;;12.80;93.80;;;;;;5036082;28;20032;-83
2020/12/22 08:51:08;;;;;;;7.40;3.33;;;12.80;93.50;;;;;;5035913;28;20034;-82
2020/12/22 08:53:36;;;;;;;7.13;2.75;;;12.80;93.60;;;;;;5036208;28;20030;-83
2020/12/22 08:56:06;;;;;;;7.50;2.92;;;12.90;93.40;;;;;;5035907;28;20087;-83
2020/12/22 08:58:31;;;;;;;3.88;1.90;;;12.90;93.20;;;;;;5018589;28;20041;-83
2020/12/22 09:00:57;;;;;;;6.95;2.05;;;12.90;93.30;;;;;;5035915;28;20038;-83
2020/12/22 09:03:23;;;;;;;5.13;1.85;;;12.90;93.10;;;;;;5036039;28;20104;-83
2020/12/22 09:05:52;;;;;;;6.15;2.40;;;12.90;93.20;;;;;;5035916;28;20025;-82
2020/12/22 09:08:17;;;;;;;7.95;3.30;;;12.90;93.00;;;;;;5035882;28;20052;-83
2020/12/22 09:10:47;;;;;;;10.00;2.97;;;12.90;93.00;;;;;;5035977;28;20033;-83
2020/12/22 09:13:14;;;;;;;6.43;2.75;;;12.90;93.20;;;;;;5018498;28;20029;-83
2020/12/22 09:15:53;;;;;;;4.35;1.63;;;13.00;92.80;;;;;;5036030;28;20036;-83
2020/12/22 09:18:18;;;;;;;4.65;1.65;;;13.00;92.30;;;;;;5038714;28;20056;-82
2020/12/22 09:20:59;;;;;;;3.05;1.48;;;13.00;92.30;;;;;;5039385;28;20037;-83
2020/12/22 09:23:25;;;;;;;3.95;1.30;;;13.10;92.30;;;;;;5039398;28;20025;-83
2020/12/22 09:25:50;;;;;;;3.58;1.10;;;13.00;92.00;;;;;;5038956;28;20097;-82
2020/12/22 09:28:20;;;;;;;4.13;0.90;;;13.10;92.00;;;;;;5039173;28;20021;-82
2020/12/22 09:30:46;;;;;;;3.65;1.10;;;13.10;91.40;;;;;;5039924;28;20076;-83
2020/12/22 09:33:11;;;;;;;5.07;1.50;;;13.10;91.20;;;;;;5040478;28;20486;-83
2020/12/22 09:35:37;;;;;;;2.33;0.82;;;13.10;91.10;;;;;;5040273;28;20044;-82
2020/12/22 09:38:02;;;;;;;4.28;0.90;;;13.10;90.90;;;;;;5040834;28;20464;-82
2020/12/22 09:40:28;;;;;;;3.20;0.93;;;13.10;90.70;;;;;;5040073;28;20128;-83
2020/12/22 09:42:54;;;;;;;3.13;0.73;;;13.20;90.20;;;;;;5040487;28;20030;-83
2020/12/22 09:45:19;;;;;;;3.28;0.93;;;13.20;90.30;;;;;;5040965;28;20378;-82
2020/12/22 09:47:45;;;;;;;5.00;0.90;;;13.20;90.30;;;;;;5040449;28;20025;-83
2020/12/22 09:50:10;;;;;;;3.63;0.80;;;13.20;90.40;;;;;;5022562;28;20505;-83
2020/12/22 09:52:36;;;;;;;2.83;0.93;;;13.20;90.40;;;;;;5040596;28;20052;-83
2020/12/22 09:55:02;;;;;;;3.90;0.93;;;13.10;90.60;;;;;;5039803;28;20025;-82
2020/12/22 09:57:28;;;;;;;4.22;0.90;;;13.10;90.70;;;;;;5040954;28;20447;-83
2020/12/22 09:59:57;;;;;;;4.28;0.80;;;13.10;90.70;;;;;;5040917;28;20025;-83
2020/12/22 10:02:23;;;;;;;2.88;0.80;;;13.10;90.80;;;;;;5022334;28;20025;-83
2020/12/22 10:04:48;;;;;;;3.10;0.90;;;13.10;90.20;;;;;;5041062;28;20086;-83
2020/12/22 10:07:14;;;;;;;1.77;0.90;;;13.20;90.00;;;;;;5040663;28;20018;-83
2020/12/22 10:09:39;;;;;;;10.55;1.30;;;13.20;90.10;;;;;;5040213;28;20045;-83
2020/12/22 10:12:05;;;;;;;3.20;1.00;;;13.20;90.40;;;;;;5040711;28;20037;-83
2020/12/22 10:14:32;;;;;;;2.08;0.88;;;13.10;90.50;;;;;;5040535;28;20518;-83
2020/12/22 10:16:57;;;;;;;4.45;1.80;;;13.10;91.20;;;;;;5040507;28;20041;-83
2020/12/22 10:19:23;;;;;;;4.18;1.75;;;13.00;92.10;;;;;;5040657;28;20103;-83
2020/12/22 10:21:48;;;;;;;5.22;1.90;;;12.90;92.60;;;;;;5039280;28;20025;-81
2020/12/22 10:24:14;;;;;;;4.75;2.17;;;12.90;93.10;;;;;;5038328;28;20021;-82
2020/12/22 10:26:39;;;;;;;3.40;1.38;;;12.80;93.40;;;;;;5038102;28;20083;-82
2020/12/22 10:29:05;;;;;;;4.38;1.20;;;12.80;93.70;;;;;;5036994;28;20026;-83
2020/12/22 10:31:31;;;;;;;4.32;1.40;;;12.80;93.50;;;;;;5037661;28;20079;-83
2020/12/22 10:33:57;;;;;;;3.47;1.50;;;12.70;93.70;;;;;;5038290;28;20482;-82
2020/12/22 10:36:24;;;;;;;2.88;1.23;;;12.70;93.60;;;;;;5037814;28;20021;-82
2020/12/22 10:38:54;;;;;;;2.20;0.98;;;12.70;93.40;;;;;;5036833;28;20053;-83
2020/12/22 10:41:20;;;;;;;2.42;1.00;;;12.80;93.30;;;;;;5019269;28;20399;-82
2020/12/22 10:43:50;;;;;;;2.60;0.80;;;12.80;93.30;;;;;;5037591;28;20025;-83
2020/12/22 10:46:16;;;;;;;2.30;0.90;;;12.80;93.10;;;;;;5037775;28;20024;-82
2020/12/22 10:48:43;;;;;;;2.05;0.90;;;12.80;93.20;;;;;;5037107;28;20021;-83
2020/12/22 10:51:09;;;;;;;1.88;0.98;;;12.80;93.20;;;;;;5036952;28;20025;-82
2020/12/22 10:53:35;;;;;;;3.35;0.93;;;12.90;93.20;;;;;;5036949;28;20032;-82
2020/12/22 10:56:02;;;;;;;3.47;1.02;;;12.90;93.00;;;;;;5037426;28;20026;-83
2020/12/22 10:58:28;;;;;;;3.08;1.52;;;12.80;93.20;;;;;;5036846;28;20585;-82
2020/12/22 11:00:53;;;;;;;1.40;0.90;;;12.90;93.20;;;;;;5036193;28;20029;-81
2020/12/22 11:03:20;;;;;;;1.58;0.82;;;12.90;93.30;;;;;;5034819;28;20029;-81
2020/12/22 11:08:50;;;;;;;2.55;1.05;;;12.90;93.30;;;;;;5000862;28;20029;-81
2020/12/22 11:11:16;;;;;;;2.97;1.33;;;12.80;93.60;;;;;;5034348;28;20029;-81
2020/12/22 11:13:41;;;;;;;3.58;1.30;;;12.80;93.60;;;;;;5035061;28;20030;-81
2020/12/22 11:16:07;;;;;;;2.30;1.15;;;12.80;93.40;;;;;;5016692;28;20032;-81
2020/12/22 11:18:34;;;;;;;2.92;1.30;;;12.80;93.40;;;;;;5034466;28;20033;-81
2020/12/22 11:21:00;;;;;;;5.15;1.45;;;12.80;93.20;;;;;;5034152;28;20026;-81
2020/12/22 11:23:25;;;;;;;2.60;1.40;;;12.80;93.00;;;;;;5034948;28;20036;-81
2020/12/22 11:25:51;;;;;;;2.60;1.10;;;12.70;93.00;;;;;;5034730;28;20044;-81
2020/12/22 11:28:16;;;;;;;4.28;1.13;;;12.70;92.40;;;;;;5034155;28;20025;-81
2020/12/22 11:30:42;;;;;;;4.32;1.25;;;12.70;92.30;;;;;;5034081;28;20057;-82
2020/12/22 11:33:09;;;;;;;3.30;0.95;;;12.80;92.10;;;;;;5034460;28;20036;-81
2020/12/22 11:35:35;;;;;;;2.92;1.13;;;12.80;92.00;;;;;;5034622;28;20029;-81
2020/12/22 11:38:01;;;;;;;2.00;0.98;;;12.80;91.90;;;;;;5034068;28;20036;-82
2020/12/22 11:40:26;;;;;;;2.55;1.05;;;12.80;91.80;;;;;;5033346;28;20022;-81
2020/12/22 11:42:52;;;;;;;3.05;1.00;;;12.80;91.70;;;;;;5034318;28;20072;-81
2020/12/22 11:45:18;;;;;;;6.10;0.98;;;12.70;91.70;;;;;;5034628;28;20075;-81
2020/12/22 11:47:43;;;;;;;1.80;0.80;;;12.80;91.40;;;;;;5034279;28;20029;-82
2020/12/22 11:50:09;;;;;;;4.57;0.80;;;12.80;91.20;;;;;;5033958;28;20018;-81
2020/12/22 11:52:34;;;;;;;3.22;0.80;;;12.80;91.00;;;;;;5033943;28;20429;-81
2020/12/22 11:55:00;;;;;;;2.80;0.85;;;12.80;91.00;;;;;;5034238;28;20021;-81
2020/12/22 11:57:26;;;;;;;3.97;0.80;;;12.80;91.00;;;;;;5033999;28;20070;-81
2020/12/22 11:59:51;;;;;;;2.67;0.70;;;12.90;90.70;;;;;;5033690;28;20036;-81
2020/12/22 12:02:17;;;;;;;2.35;0.75;;;12.90;90.70;;;;;;5033818;28;20026;-81
2020/12/22 12:04:42;;;;;;;3.50;0.82;;;12.90;90.50;;;;;;5033790;28;20470;-81
2020/12/22 12:07:10;;;;;;;2.05;0.57;;;12.90;90.70;;;;;;5034037;28;20025;-81
2020/12/22 12:09:35;;;;;;;2.60;0.80;;;12.90;90.60;;;;;;5033624;28;20212;-81
2020/12/22 12:12:01;;;;;;;2.92;0.68;;;12.90;90.60;;;;;;5034016;28;20025;-81
2020/12/22 12:14:28;;;;;;;3.08;0.90;;;12.90;90.20;;;;;;5034317;28;20083;-81
2020/12/22 12:16:56;;;;;;;2.58;0.80;;;12.90;90.40;;;;;;5034996;28;20025;-83
2020/12/22 12:19:22;;;;;;;2.47;0.95;;;13.00;90.40;;;;;;5019204;28;20379;-83
2020/12/22 12:21:47;;;;;;;2.50;0.98;;;13.00;90.30;;;;;;5020042;28;20067;-82
2020/12/22 12:24:13;;;;;;;3.33;0.90;;;12.90;90.30;;;;;;5017361;28;20033;-83
2020/12/22 12:26:39;;;;;;;6.68;1.17;;;12.90;90.30;;;;;;5035106;28;20095;-82
2020/12/22 12:29:05;;;;;;;2.57;1.07;;;13.00;90.00;;;;;;5035172;28;20393;-82
2020/12/22 12:31:32;;;;;;;3.13;0.98;;;13.00;90.00;;;;;;5016926;28;20026;-82
2020/12/22 12:33:58;;;;;;;2.95;1.00;;;13.00;90.00;;;;;;5034953;28;20063;-82
2020/12/22 12:36:24;;;;;;;2.95;0.82;;;13.00;89.90;;;;;;5035069;28;20039;-82
2020/12/22 12:38:50;;;;;;;2.35;0.82;;;13.00;89.40;;;;;;5035231;28;20022;-82
2020/12/22 12:41:16;;;;;;;3.53;0.85;;;13.00;89.30;;;;;;5016654;28;20034;-82
2020/12/22 12:43:42;;;;;;;4.22;1.38;;;13.00;89.60;;;;;;5035676;28;20026;-82
2020/12/22 12:46:09;;;;;;;2.50;0.80;;;13.00;89.70;;;;;;5036265;28;20047;-82
2020/12/22 12:48:35;;;;;;;2.17;1.00;;;13.00;89.80;;;;;;5035363;28;20025;-82
2020/12/22 12:51:03;;;;;;;1.52;0.77;;;12.90;88.60;;;;;;5036398;28;20293;-82